If you wish to contribute or participate in the discussions about articles you are invited to join SKYbrary as a registered user

 Actions

Capitán Aníbal Arab Airport

From SKYbrary Wiki

SLCO
Airport
ICAO: SLCO – IATA: CIJ
Summary
Name Capitán Aníbal Arab Airport
Region South America and Caribbean
Territory Bolivia BO.gif
Location Cobija, Pando
Serving Cobija
Elevation 270.967 m
889 ft
889 ft270.967 m
Type medium airport
Coordinates 11° 2' 25.57" S, 68° 46' 58.70" W
Runways
Designator Length Width Surface ROPS
2/20 2000 m6,561.68 ft
30 m98.425 ft
ASP /


METAR
Observation SLCO 131900Z 00000KT 9999 FEW023 FEW025CB SCT080 29/25 Q1005
Station Cobija
Date/Time 13 November 2019 19:00:00
Wind direction
Wind speed 00 kts
Lowest cloud amount few clouds
Temperature 29°C
Dew point 25°C
Humidity 79%
QNH 1005 hPa
Weather condition n/a

International airport serving the Acre River port city of Cobija, the capital of the Pando Department of Bolivia.

Climatology

Tropical Savanna climate (Köppen climate classification Aw).

Maps

Terrain

Loading map...

Airport Layout

Loading map...


Accidents & Serious Incidents at or in vicinity of SLCO

None on SKYbrary